Tropical Cyclones
[Index]
Main Index Home Page Stock Weather Photos Extreme Storms Discussion Storm News and Storm Chasing Reports Tropical Cyclones / Hurricanes / Typhoons Weather Data and Links Wild Fires / Bushfires Weather Observation Techniques Weather Picture Catalogue Tornado Pictures and Reports Stock Video Footage and DVDs for sale
Season 1994-1995 Tropical Cyclone DORINA Track Map
Season 1994-1995 Summaries: [BoM-AU] [JTWC-AU] [JTWC-SIO] [JTWC-SPAC] [JTWC-SH]
<<- Previous TC | JTWC 1994-1995 Season | Next TC ->>

click for intensity scale information  Lat/long Grid: Show Hide

 Date Labels: Show Hide

Joint Typhoon Warning Centre Cyclone Data

Name: DORINA

16 Jan 1995 18:00 UTC to 30 Jan 1995 12:00 UTC

    date/time    lat    long     hPa   cat  kts
1995-01-16 18    9.5    78.0                  15          
1995-01-17 00    9.9    78.1                  15          
1995-01-17 06   10.2    78.2                  15          
1995-01-17 12   10.5    78.3                  15          
1995-01-17 18   10.8    78.4                  15          
1995-01-18 00   11.1    78.6                  15          
1995-01-18 06   11.4    78.8                  20          
1995-01-18 12   11.7    78.9                  20          
1995-01-18 18   12.0    79.0                  20          
1995-01-19 00   12.2    79.1                  25          
1995-01-19 06   12.4    79.2                  25          
1995-01-19 12   12.6    79.2                  25          
1995-01-19 18   12.9    79.3                  25          
1995-01-20 00   13.2    79.3                  30          
1995-01-20 06   13.6    79.2                  35          
1995-01-20 12   14.1    79.1            1     40          
1995-01-20 18   14.7    78.9            1     50          
1995-01-21 00   15.3    78.6            2     60          
1995-01-21 06   16.0    78.2            2     70          
1995-01-21 12   16.6    77.7            3     80          
1995-01-21 18   17.1    77.1            3     90          
1995-01-22 00   17.5    76.5            4    100          
1995-01-22 06   17.8    75.8            4    100          
1995-01-22 12   18.1    75.2            4    100          
1995-01-22 18   18.3    74.6            4    100          
1995-01-23 00   18.5    74.0            4    100          
1995-01-23 06   18.7    73.4            4    100          
1995-01-23 12   18.8    72.9            3     95          
1995-01-23 18   18.9    72.4            3     95          
1995-01-24 00   19.0    71.9            3     90          
1995-01-24 06   19.1    71.4            3     85          
1995-01-24 12   19.2    71.0            3     80          
1995-01-24 18   19.3    70.7            3     75          
1995-01-25 00   19.4    70.4            2     70          
1995-01-25 06   19.5    70.0            2     65          
1995-01-25 12   19.6    69.6            2     60          
1995-01-25 18   19.7    69.1            2     55          
1995-01-26 00   19.7    68.5            1     50          
1995-01-26 06   19.8    67.7            1     45          
1995-01-26 12   20.0    66.7            1     40          
1995-01-26 18   20.3    65.6            1     40          
1995-01-27 00   20.6    64.5            1     45          
1995-01-27 06   21.0    63.4            1     50          
1995-01-27 12   21.5    62.4            2     55          
1995-01-27 18   22.2    61.5            2     55          
1995-01-28 00   22.9    60.6            1     50          
1995-01-28 06   23.6    59.8            1     50          
1995-01-28 12   24.4    59.4            1     45          
1995-01-28 18   25.2    59.0            1     45          
1995-01-29 00   25.9    58.7            1     40          
1995-01-29 06   26.5    58.4            1     40          
1995-01-29 12   27.1    58.0                  35          
1995-01-29 18   27.8    57.5                  35          
1995-01-30 00   28.5    57.0                  35          
1995-01-30 06   29.1    56.4                  35          
1995-01-30 12   29.6    55.7                  35          
Winds are 1-min average.

Tropical cyclone tracks developed by Michael Bath using data from the Joint Typhoon Warning Centre Best Tracks and Google Maps.


[Australian Severe Weather index] [Copyright Notice] [Email Contacts] [Search This Site] [Privacy Policy]
Document: tropical_cyclone_dorina.htm Updated: 18 September 2016